createdAt,value
2019-04-05T00:00:10.473Z,0
2019-04-05T00:01:39.828Z,0
2019-04-05T00:02:10.536Z,0
2019-04-05T00:03:10.545Z,0
2019-04-05T00:04:10.660Z,0
2019-04-05T00:05:10.579Z,0
2019-04-05T00:06:10.601Z,0
2019-04-05T00:08:10.634Z,0
2019-04-05T00:09:10.658Z,0
2019-04-05T00:11:10.695Z,0
2019-04-05T00:12:10.716Z,0
2019-04-05T00:13:10.745Z,0
2019-04-05T00:14:10.764Z,0
2019-04-05T00:15:22.280Z,0
2019-04-05T00:16:10.798Z,0
2019-04-05T00:17:25.487Z,0
2019-04-05T00:18:10.837Z,0
2019-04-05T00:19:10.858Z,0
2019-04-05T00:20:10.882Z,0
2019-04-05T00:21:10.902Z,0
2019-04-05T00:22:10.919Z,0
2019-04-05T00:23:25.604Z,0
2019-04-05T00:24:25.624Z,0
2019-04-05T00:25:11.012Z,0
2019-04-05T00:26:25.661Z,0
2019-04-05T00:27:11.022Z,0
2019-04-05T00:28:11.039Z,0
2019-04-05T00:30:11.094Z,0
2019-04-05T00:31:11.105Z,0
2019-04-05T00:32:25.785Z,0
2019-04-05T00:33:11.141Z,0
2019-04-05T00:34:11.186Z,0
2019-04-05T00:35:11.179Z,0
2019-04-05T00:36:10.953Z,0
2019-04-05T00:37:11.221Z,0
2019-04-05T00:38:11.240Z,0
2019-04-05T00:39:11.261Z,0
2019-04-05T00:40:11.311Z,0
2019-04-05T00:41:11.301Z,0
2019-04-05T00:43:26.008Z,0
2019-04-05T00:44:11.361Z,0
2019-04-05T00:45:11.386Z,0
2019-04-05T00:46:11.405Z,0
2019-04-05T00:47:11.421Z,0
2019-04-05T00:48:11.463Z,0
2019-04-05T00:49:11.460Z,0
2019-04-05T00:50:11.502Z,0
2019-04-05T00:51:11.498Z,0
2019-04-05T00:52:11.522Z,0
2019-04-05T00:53:11.540Z,0
2019-04-05T00:54:11.569Z,0
2019-04-05T00:55:11.578Z,0
2019-04-05T00:56:11.633Z,0
2019-04-05T00:57:11.369Z,0
2019-04-05T00:58:26.305Z,0
2019-04-05T00:59:11.755Z,0
2019-04-05T01:00:11.677Z,0
2019-04-05T01:01:11.704Z,0
2019-04-05T01:02:11.719Z,0
2019-04-05T01:04:26.421Z,0
2019-04-05T01:05:11.777Z,0
2019-04-05T01:06:11.802Z,0
2019-04-05T01:07:11.838Z,0
2019-04-05T01:08:11.839Z,0
2019-04-05T01:09:11.858Z,0
2019-04-05T01:10:26.542Z,0
2019-04-05T01:11:26.564Z,0
2019-04-05T01:12:11.915Z,0
2019-04-05T01:13:11.935Z,0
2019-04-05T01:14:11.966Z,0
2019-04-05T01:15:11.756Z,0
2019-04-05T01:16:11.996Z,0
2019-04-05T01:17:24.127Z,0
2019-04-05T01:18:12.036Z,0
2019-04-05T01:19:26.734Z,0
2019-04-05T01:20:26.736Z,0
2019-04-05T01:21:12.098Z,0
2019-04-05T01:22:12.110Z,0
2019-04-05T01:23:12.145Z,0
2019-04-05T01:24:12.156Z,0
2019-04-05T01:25:12.175Z,0
2019-04-05T01:26:12.197Z,0
2019-04-05T01:27:26.876Z,0
2019-04-05T01:28:12.236Z,0
2019-04-05T01:29:12.248Z,0
2019-04-05T01:30:26.932Z,0
2019-04-05T01:31:26.956Z,0
2019-04-05T01:32:12.087Z,0
2019-04-05T01:33:12.341Z,0
2019-04-05T01:34:12.840Z,0
2019-04-05T01:35:12.369Z,0
2019-04-05T01:36:27.049Z,0
2019-04-05T01:37:12.161Z,0
2019-04-05T01:38:12.426Z,0
2019-04-05T01:39:27.147Z,0
2019-04-05T01:40:12.467Z,0
2019-04-05T01:41:12.486Z,0
2019-04-05T01:42:12.515Z,0
2019-04-05T01:43:12.521Z,0
2019-04-05T01:44:12.547Z,0
2019-04-05T01:45:12.582Z,0
2019-04-05T01:46:12.588Z,0
2019-04-05T01:48:12.634Z,0
2019-04-05T01:49:12.646Z,0
2019-04-05T01:50:12.666Z,0
2019-04-05T01:51:12.698Z,0
2019-04-05T01:52:27.363Z,0
2019-04-05T01:53:12.728Z,0
2019-04-05T01:54:29.116Z,0
2019-04-05T01:55:12.764Z,0
2019-04-05T01:57:12.795Z,0
2019-04-05T01:58:27.482Z,0
2019-04-05T01:59:27.502Z,0
2019-04-05T02:00:12.859Z,0
2019-04-05T02:01:12.879Z,0
2019-04-05T02:03:27.578Z,0
2019-04-05T02:05:12.957Z,0
2019-04-05T02:06:12.978Z,0
2019-04-05T02:07:27.661Z,0
2019-04-05T02:09:13.036Z,0
2019-04-05T02:10:13.051Z,0
2019-04-05T02:11:13.069Z,0
2019-04-05T02:12:13.089Z,0
2019-04-05T02:14:13.126Z,0
2019-04-05T02:15:13.151Z,0
2019-04-05T02:16:14.143Z,0
2019-04-05T02:17:13.182Z,0
2019-04-05T02:18:13.206Z,0
2019-04-05T02:19:13.223Z,0
2019-04-05T02:20:13.280Z,0
2019-04-05T02:21:13.021Z,0
2019-04-05T02:22:13.281Z,0
2019-04-05T02:23:13.342Z,0
2019-04-05T02:24:13.324Z,0
2019-04-05T02:25:13.351Z,0
2019-04-05T02:26:13.364Z,0
2019-04-05T02:27:13.395Z,0
2019-04-05T02:28:13.404Z,0
2019-04-05T02:29:13.419Z,0
2019-04-05T02:30:28.119Z,0
2019-04-05T02:31:28.138Z,0
2019-04-05T02:32:28.146Z,0
2019-04-05T02:33:28.163Z,0
2019-04-05T02:34:13.559Z,0
2019-04-05T02:35:13.660Z,0
2019-04-05T02:36:13.564Z,0
2019-04-05T02:37:13.580Z,0
2019-04-05T02:38:13.671Z,0
2019-04-05T02:39:28.292Z,0
2019-04-05T02:40:13.642Z,0
2019-04-05T02:41:13.661Z,0
2019-04-05T02:42:13.472Z,0
2019-04-05T02:43:13.702Z,0
2019-04-05T02:45:13.791Z,0
2019-04-05T02:46:29.864Z,0
2019-04-05T02:47:13.780Z,0
2019-04-05T02:48:13.814Z,0
2019-04-05T02:49:13.810Z,0
2019-04-05T02:50:13.827Z,0
2019-04-05T02:51:13.848Z,0
2019-04-05T02:52:28.535Z,0
2019-04-05T02:54:28.584Z,0
2019-04-05T02:55:28.594Z,0
2019-04-05T02:56:13.975Z,0
2019-04-05T02:57:13.717Z,0
2019-04-05T02:58:14.005Z,0
2019-04-05T02:59:14.017Z,0
2019-04-05T03:00:14.032Z,0
2019-04-05T03:01:14.036Z,0
2019-04-05T03:02:14.070Z,0
2019-04-05T03:03:13.829Z,0
2019-04-05T03:04:14.095Z,0
2019-04-05T03:05:14.141Z,0
2019-04-05T03:06:14.146Z,0
2019-04-05T03:07:14.209Z,0
2019-04-05T03:08:14.169Z,0
2019-04-05T03:09:28.862Z,0
2019-04-05T03:10:28.926Z,0
2019-04-05T03:11:29.000Z,0
2019-04-05T03:12:14.268Z,0
2019-04-05T03:13:14.267Z,0
2019-04-05T03:14:14.286Z,0
2019-04-05T03:15:14.305Z,0
2019-04-05T03:16:14.429Z,0
2019-04-05T03:17:14.366Z,0
2019-04-05T03:18:14.423Z,0
2019-04-05T03:19:14.378Z,0
2019-04-05T03:20:14.414Z,0
2019-04-05T03:21:14.428Z,0
2019-04-05T03:22:29.119Z,0
2019-04-05T03:24:14.473Z,0
2019-04-05T03:25:14.537Z,0
2019-04-05T03:26:14.549Z,0
2019-04-05T03:27:29.225Z,0
2019-04-05T03:28:14.551Z,0
2019-04-05T03:29:14.570Z,0
2019-04-05T03:30:14.608Z,0
2019-04-05T03:31:14.622Z,0
2019-04-05T03:32:14.638Z,0
2019-04-05T03:33:14.769Z,0
2019-04-05T03:34:14.691Z,0
2019-04-05T03:35:14.715Z,0
2019-04-05T03:36:14.727Z,0
2019-04-05T03:37:14.724Z,0
2019-04-05T03:38:14.756Z,0
2019-04-05T03:39:14.788Z,0
2019-04-05T03:40:14.785Z,0
2019-04-05T03:41:14.814Z,0
2019-04-05T03:43:14.856Z,0
2019-04-05T03:44:14.863Z,0
2019-04-05T03:45:14.884Z,0
2019-04-05T03:47:29.571Z,0
2019-04-05T03:48:14.947Z,0
2019-04-05T03:49:14.951Z,0
2019-04-05T03:51:14.981Z,0
2019-04-05T03:52:15.072Z,0
2019-04-05T03:55:15.079Z,4
2019-04-05T03:56:15.087Z,0
2019-04-05T03:57:15.120Z,0
2019-04-05T03:58:15.133Z,4
2019-04-05T03:59:15.154Z,4
2019-04-05T04:00:15.164Z,4
2019-04-05T04:01:15.181Z,4
2019-04-05T04:02:14.963Z,4
2019-04-05T04:03:14.744Z,4
2019-04-05T04:04:15.225Z,4
2019-04-05T04:05:29.920Z,8
2019-04-05T04:06:15.267Z,8
2019-04-05T04:07:15.295Z,8
2019-04-05T04:08:15.320Z,12
2019-04-05T04:09:15.357Z,16
2019-04-05T04:10:30.004Z,20
2019-04-05T04:11:15.395Z,24
2019-04-05T04:12:15.391Z,24
2019-04-05T04:13:15.405Z,28
2019-04-05T04:14:30.094Z,36
2019-04-05T04:15:18.667Z,40
2019-04-05T04:16:15.447Z,48
2019-04-05T04:17:34.990Z,56
2019-04-05T04:18:15.512Z,64
2019-04-05T04:19:15.300Z,76
2019-04-05T04:20:15.531Z,84
2019-04-05T04:21:15.556Z,96
2019-04-05T04:22:15.569Z,108
2019-04-05T04:23:15.636Z,124
2019-04-05T04:24:15.671Z,144
2019-04-05T04:25:15.630Z,160
2019-04-05T04:26:15.636Z,180
2019-04-05T04:27:15.474Z,200
2019-04-05T04:28:15.683Z,224
2019-04-05T04:30:30.372Z,284
2019-04-05T04:31:15.724Z,304
2019-04-05T04:32:15.774Z,336
2019-04-05T04:33:15.769Z,364
2019-04-05T04:34:15.804Z,396
2019-04-05T04:35:15.811Z,428
2019-04-05T04:36:17.978Z,468
2019-04-05T04:37:15.837Z,504
2019-04-05T04:38:15.871Z,544
2019-04-05T04:39:15.631Z,584
2019-04-05T04:40:30.553Z,640
2019-04-05T04:41:34.362Z,692
2019-04-05T04:42:15.947Z,728
2019-04-05T04:43:15.959Z,784
2019-04-05T04:44:15.822Z,840
2019-04-05T04:45:19.833Z,904
2019-04-05T04:46:30.702Z,980
2019-04-05T04:47:30.204Z,1040
2019-04-05T04:48:16.039Z,1084
2019-04-05T04:49:16.056Z,1152
2019-04-05T04:50:30.504Z,1256
2019-04-05T04:51:16.092Z,1328
2019-04-05T04:52:16.127Z,1420
2019-04-05T04:53:16.128Z,1508
2019-04-05T04:54:30.809Z,1624
2019-04-05T04:55:16.163Z,1692
2019-04-05T04:56:16.181Z,1800
2019-04-05T04:57:16.205Z,1908
2019-04-05T04:58:16.242Z,2024
2019-04-05T04:59:16.244Z,2144
2019-04-05T05:00:16.266Z,2268
2019-04-05T05:01:16.283Z,2404
2019-04-05T05:02:30.956Z,2572
2019-04-05T05:03:30.736Z,2756
2019-04-05T05:04:16.340Z,2952
2019-04-05T05:05:16.354Z,3028
2019-04-05T05:06:16.384Z,3188
2019-04-05T05:07:31.050Z,3396
2019-04-05T05:08:16.409Z,3508
2019-04-05T05:09:16.423Z,3652
2019-04-05T05:10:16.450Z,3800
2019-04-05T05:11:21.947Z,3976
2019-04-05T05:12:16.531Z,4132
2019-04-05T05:13:16.496Z,4308
2019-04-05T05:14:30.934Z,5376
2019-04-05T05:15:16.536Z,7020
2019-04-05T05:16:16.557Z,9068
2019-04-05T05:17:43.002Z,9320
2019-04-05T05:18:16.593Z,9392
2019-04-05T05:19:16.607Z,10160
2019-04-05T05:20:16.629Z,10208
2019-04-05T05:21:31.315Z,8500
2019-04-05T05:22:16.673Z,7388
2019-04-05T05:23:16.685Z,9236
2019-04-05T05:24:16.781Z,11904
2019-04-05T05:25:16.734Z,9944
2019-04-05T05:26:16.747Z,10356
2019-04-05T05:27:16.794Z,11496
2019-04-05T05:28:32.839Z,10104
2019-04-05T05:29:16.804Z,9772
2019-04-05T05:30:16.830Z,16608
2019-04-05T05:31:16.855Z,20480
2019-04-05T05:32:17.046Z,16704
2019-04-05T05:34:16.916Z,13280
2019-04-05T05:35:16.976Z,15360
2019-04-05T05:36:17.850Z,19328
2019-04-05T05:37:16.972Z,18272
2019-04-05T05:38:17.061Z,15072
2019-04-05T05:39:31.679Z,15744
2019-04-05T05:40:17.042Z,17312
2019-04-05T05:41:17.060Z,14336
2019-04-05T05:42:17.082Z,13952
2019-04-05T05:43:17.183Z,18080
2019-04-05T05:44:17.131Z,18144
2019-04-05T05:45:17.145Z,17344
2019-04-05T05:47:17.196Z,18400
2019-04-05T05:48:17.212Z,18944
2019-04-05T05:49:31.891Z,19328
2019-04-05T05:50:17.259Z,19808
2019-04-05T05:51:17.272Z,22976
2019-04-05T05:52:17.286Z,25312
2019-04-05T05:53:31.998Z,27040
2019-04-05T05:54:17.332Z,27776
2019-04-05T05:55:17.358Z,29472
2019-04-05T05:56:17.386Z,32768
2019-04-05T05:57:32.068Z,34528
2019-04-05T05:58:17.425Z,36800
2019-04-05T05:59:17.460Z,37760
2019-04-05T06:00:17.481Z,36864
2019-04-05T06:01:17.497Z,35712
2019-04-05T06:02:17.550Z,34976
2019-04-05T06:03:21.484Z,36096
2019-04-05T06:04:19.996Z,37184
2019-04-05T06:05:32.253Z,40448
2019-04-05T06:06:17.611Z,40800
2019-04-05T06:07:19.994Z,39360
2019-04-05T06:08:17.665Z,40256
2019-04-05T06:09:17.686Z,40672
2019-04-05T06:10:17.461Z,41984
2019-04-05T06:11:17.743Z,41824
2019-04-05T06:12:17.766Z,39584
2019-04-05T06:13:17.784Z,36192
2019-04-05T06:15:17.837Z,36544
2019-04-05T06:16:45.538Z,36992
2019-04-05T06:17:32.554Z,38880
2019-04-05T06:18:19.903Z,42592
2019-04-05T06:19:17.948Z,45408
2019-04-05T06:20:17.993Z,46240
2019-04-05T06:21:32.659Z,48256
2019-04-05T06:22:18.028Z,48064
2019-04-05T06:23:18.052Z,49280
2019-04-05T06:24:18.076Z,50176
2019-04-05T06:26:18.151Z,49824
2019-04-05T06:27:35.311Z,48288
2019-04-05T06:28:18.187Z,48736
2019-04-05T06:30:18.265Z,53344
2019-04-05T06:31:18.277Z,53024
2019-04-05T06:32:32.960Z,51712
2019-04-05T06:33:35.888Z,52672
2019-04-05T06:37:00.332Z,53888
2019-04-05T06:38:00.537Z,54560
2019-04-05T06:39:00.381Z,53856
2019-04-05T06:40:00.425Z,52576
2019-04-05T06:41:00.439Z,52608
2019-04-05T06:42:15.136Z,53280
2019-04-05T06:43:00.498Z,53280
2019-04-05T06:44:00.527Z,52896
2019-04-05T06:45:00.561Z,54368
2019-04-05T06:47:00.377Z,56128
2019-04-05T06:48:00.643Z,55552
2019-04-05T06:49:00.681Z,54176
2019-04-05T06:50:00.703Z,53312
2019-04-05T06:51:00.732Z,53088
2019-04-05T06:52:00.806Z,54880
2019-04-05T06:53:00.790Z,55200
2019-04-05T06:54:15.496Z,53760
2019-04-05T06:55:00.848Z,53952
2019-04-05T06:56:02.581Z,53536
2019-04-05T06:57:00.927Z,53952
2019-04-05T06:58:00.981Z,55584
2019-04-05T06:59:01.053Z,55392
2019-04-05T07:00:01.176Z,56320
2019-04-05T07:01:04.644Z,56000
2019-04-05T07:02:01.055Z,54912
2019-04-05T07:03:01.112Z,53472
2019-04-05T07:05:01.150Z,54656
2019-04-05T07:06:01.179Z,52640
2019-04-05T07:07:01.210Z,52736
2019-04-05T07:08:01.241Z,54016
2019-04-05T07:10:01.298Z,54912
2019-04-05T07:11:01.334Z,54432
2019-04-05T07:12:01.382Z,53120
2019-04-05T07:13:01.648Z,51648
2019-04-05T07:14:16.109Z,52032
2019-04-05T07:15:03.536Z,47072
2019-04-05T07:16:01.487Z,24224
2019-04-05T07:17:01.511Z,32832
2019-04-05T07:18:01.532Z,19200
2019-04-05T07:19:01.565Z,15812
2019-04-05T07:20:01.346Z,15216
2019-04-05T07:21:02.801Z,13388
2019-04-05T07:22:01.660Z,12416
2019-04-05T07:23:01.931Z,11108
2019-04-05T07:24:01.707Z,10100
2019-04-05T07:25:16.424Z,8276
2019-04-05T07:26:16.423Z,7540
2019-04-05T07:27:01.790Z,7716
2019-04-05T07:28:01.560Z,7556
2019-04-05T07:29:01.844Z,6924
2019-04-05T07:30:16.529Z,5988
2019-04-05T07:31:01.919Z,6148
2019-04-05T07:32:01.956Z,5528
2019-04-05T07:33:01.949Z,5144
2019-04-05T07:34:03.416Z,5268
2019-04-05T07:36:03.532Z,5140
2019-04-05T07:37:02.042Z,5372
2019-04-05T07:39:01.893Z,5108
2019-04-05T07:40:02.114Z,4964
2019-04-05T07:41:16.805Z,4940
2019-04-05T07:42:02.163Z,5248
2019-04-05T07:43:02.187Z,5084
2019-04-05T07:44:02.208Z,4708
2019-04-05T07:46:16.968Z,5092
2019-04-05T07:47:02.282Z,5072
2019-04-05T07:48:02.364Z,4940
2019-04-05T07:49:02.326Z,5160
2019-04-05T07:50:02.461Z,5572
2019-04-05T07:51:02.393Z,5968
2019-04-05T07:52:02.403Z,6932
2019-04-05T07:53:02.423Z,7896
2019-04-05T07:54:17.180Z,8048
2019-04-05T07:55:02.479Z,6892
2019-04-05T07:56:02.496Z,5724
2019-04-05T07:57:02.520Z,5432
2019-04-05T07:58:02.582Z,5324
2019-04-05T07:59:02.565Z,5236
2019-04-05T08:00:02.591Z,5336
2019-04-05T08:01:02.615Z,5644
2019-04-05T08:02:17.293Z,5212
2019-04-05T08:03:02.655Z,4804
2019-04-05T08:04:05.275Z,4568
2019-04-05T08:05:02.705Z,4760
2019-04-05T08:06:02.728Z,5312
2019-04-05T08:07:02.746Z,5848
2019-04-05T08:08:02.765Z,5712
2019-04-05T08:09:04.713Z,5888
2019-04-05T08:10:05.485Z,5920
2019-04-05T08:11:02.846Z,6256
2019-04-05T08:12:02.866Z,5796
2019-04-05T08:13:02.930Z,4992
2019-04-05T08:14:02.914Z,4720
2019-04-05T08:16:06.028Z,5140
2019-04-05T08:17:17.646Z,4848
2019-04-05T08:18:02.991Z,4652
2019-04-05T08:19:05.306Z,4248
2019-04-05T08:20:03.033Z,4072
2019-04-05T08:21:17.732Z,3864
2019-04-05T08:22:03.093Z,3776
2019-04-05T08:23:17.767Z,3864
2019-04-05T08:24:17.644Z,3928
2019-04-05T08:25:03.159Z,3960
2019-04-05T08:26:03.290Z,4088
2019-04-05T08:27:03.196Z,4192
2019-04-05T08:28:03.222Z,4360
2019-04-05T08:29:17.917Z,4484
2019-04-05T08:30:17.922Z,4664
2019-04-05T08:31:03.281Z,4684
2019-04-05T08:32:16.322Z,4620
2019-04-05T08:34:03.344Z,4536
2019-04-05T08:35:03.369Z,4644
2019-04-05T08:36:03.399Z,4832
2019-04-05T08:37:03.424Z,4812
2019-04-05T08:38:03.448Z,4832
2019-04-05T08:39:03.461Z,5012
2019-04-05T08:40:18.144Z,5344
2019-04-05T08:41:03.565Z,5420
2019-04-05T08:42:18.180Z,5392
2019-04-05T08:43:18.205Z,5160
2019-04-05T08:44:03.581Z,5276
2019-04-05T08:45:18.250Z,5128
2019-04-05T08:46:18.267Z,5264
2019-04-05T08:47:03.715Z,5400
2019-04-05T08:48:03.655Z,5680
2019-04-05T08:49:18.332Z,5712
2019-04-05T08:51:03.716Z,5592
2019-04-05T08:53:03.755Z,5772
2019-04-05T08:54:03.800Z,5620
2019-04-05T08:55:03.853Z,5528
2019-04-05T08:56:03.825Z,5828
2019-04-05T08:57:18.506Z,6128
2019-04-05T08:58:03.865Z,5932
2019-04-05T09:00:03.908Z,6488
2019-04-05T09:02:18.617Z,7236
2019-04-05T09:03:04.137Z,7240
2019-04-05T09:04:18.668Z,7144
2019-04-05T09:05:18.685Z,7252
2019-04-05T09:06:04.053Z,7420
2019-04-05T09:07:04.065Z,7472
2019-04-05T09:08:04.091Z,7288
2019-04-05T09:09:04.108Z,7284
2019-04-05T09:10:04.145Z,6700
2019-04-05T09:11:04.145Z,6172
2019-04-05T09:13:04.188Z,6196
2019-04-05T09:14:04.211Z,6152
2019-04-05T09:15:18.896Z,6036
2019-04-05T09:16:04.259Z,5948
2019-04-05T09:17:04.283Z,5976
2019-04-05T09:18:04.303Z,5772
2019-04-05T09:20:04.351Z,5580
2019-04-05T09:21:20.962Z,5836
2019-04-05T09:22:04.381Z,5928
2019-04-05T09:23:04.505Z,6232
2019-04-05T09:24:06.516Z,6296
2019-04-05T09:25:04.449Z,6220
2019-04-05T09:26:04.475Z,6168
2019-04-05T09:27:04.512Z,6008
2019-04-05T09:28:04.521Z,5992
2019-04-05T09:29:04.553Z,6060
2019-04-05T09:31:04.577Z,5936
2019-04-05T09:32:19.264Z,5716
2019-04-05T09:33:04.369Z,5568
2019-04-05T09:34:04.651Z,5324
2019-04-05T09:35:04.674Z,5404
2019-04-05T09:37:19.377Z,5392
2019-04-05T09:38:19.397Z,5412
2019-04-05T09:39:04.760Z,5568
2019-04-05T09:40:04.841Z,5748
2019-04-05T09:41:19.459Z,6300
2019-04-05T09:42:04.823Z,6404
2019-04-05T09:43:19.507Z,6120
2019-04-05T09:44:04.648Z,6024
2019-04-05T09:45:04.882Z,5740
2019-04-05T09:46:04.899Z,5664
2019-04-05T09:47:04.916Z,5760
2019-04-05T09:48:04.945Z,6024
2019-04-05T09:49:19.625Z,6104
2019-04-05T09:50:19.649Z,6144
2019-04-05T09:51:07.079Z,5980
2019-04-05T09:52:19.693Z,6124
2019-04-05T09:53:05.052Z,6272
2019-04-05T09:54:05.072Z,6504
2019-04-05T09:55:05.090Z,6596
2019-04-05T09:56:05.119Z,6208
2019-04-05T09:57:04.893Z,6096
2019-04-05T09:58:05.158Z,5832
2019-04-05T09:59:19.843Z,5948
2019-04-05T10:00:05.204Z,5828
2019-04-05T10:01:05.227Z,5752
2019-04-05T10:02:19.914Z,5564
2019-04-05T10:03:05.274Z,5772
2019-04-05T10:04:05.346Z,5848
2019-04-05T10:07:05.346Z,5468
2019-04-05T10:08:05.371Z,5732
2019-04-05T10:09:05.390Z,5896
2019-04-05T10:10:05.410Z,5712
2019-04-05T10:11:05.430Z,5556
2019-04-05T10:12:05.453Z,5520
2019-04-05T10:13:20.149Z,5536
2019-04-05T10:14:05.506Z,5456
2019-04-05T10:15:05.520Z,5284
2019-04-05T10:16:05.541Z,4848
2019-04-05T10:17:05.558Z,4884
2019-04-05T10:18:05.589Z,5172
2019-04-05T10:19:05.604Z,5636
2019-04-05T10:20:05.623Z,5916
2019-04-05T10:21:05.649Z,5796
2019-04-05T10:23:05.687Z,5748
2019-04-05T10:24:20.376Z,5828
2019-04-05T10:25:05.753Z,6080
2019-04-05T10:26:05.784Z,6316
2019-04-05T10:27:05.776Z,6248
2019-04-05T10:28:05.808Z,5944
2019-04-05T10:29:05.814Z,5540
2019-04-05T10:30:05.837Z,5612
2019-04-05T10:31:05.861Z,5596
2019-04-05T10:32:05.883Z,5700
2019-04-05T10:33:05.908Z,5880
2019-04-05T10:34:20.585Z,6112
2019-04-05T10:35:05.946Z,6500
2019-04-05T10:36:05.974Z,6316
2019-04-05T10:37:05.988Z,6440
2019-04-05T10:38:06.008Z,6416
2019-04-05T10:39:06.081Z,6236
2019-04-05T10:40:20.712Z,6256
2019-04-05T10:41:06.070Z,6396
2019-04-05T10:42:11.029Z,6640
2019-04-05T10:43:06.143Z,6728
2019-04-05T10:45:06.164Z,7172
2019-04-05T10:47:06.418Z,6564
2019-04-05T10:48:06.279Z,6532
2019-04-05T10:49:06.249Z,7012
2019-04-05T10:50:25.419Z,6992
2019-04-05T10:51:06.289Z,6712
2019-04-05T10:53:06.412Z,6640
2019-04-05T10:54:09.239Z,6876
2019-04-05T10:55:06.455Z,7096
2019-04-05T10:56:21.054Z,7356
2019-04-05T10:57:06.452Z,7592
2019-04-05T10:58:06.453Z,7840
2019-04-05T10:59:06.455Z,8280
2019-04-05T11:00:06.552Z,8560
2019-04-05T11:01:06.500Z,8648
2019-04-05T11:02:21.185Z,9336
2019-04-05T11:04:06.577Z,10804
2019-04-05T11:05:06.594Z,10048
2019-04-05T11:06:06.605Z,9468
2019-04-05T11:07:21.293Z,9544
2019-04-05T11:08:06.650Z,9788
2019-04-05T11:09:06.675Z,9792
2019-04-05T11:10:06.695Z,9900
2019-04-05T11:11:06.727Z,9744
2019-04-05T11:12:21.398Z,9876
2019-04-05T11:13:06.757Z,9932
2019-04-05T11:14:18.917Z,9816
2019-04-05T11:15:06.804Z,9860
2019-04-05T11:16:09.467Z,9640
2019-04-05T11:17:09.157Z,9892
2019-04-05T11:18:09.476Z,10656
2019-04-05T11:19:24.049Z,10772
2019-04-05T11:20:23.896Z,11804
2019-04-05T11:21:06.948Z,13060
2019-04-05T11:22:21.619Z,13908
2019-04-05T11:23:06.976Z,13140
2019-04-05T11:24:07.030Z,13384
2019-04-05T11:26:07.048Z,11784
2019-04-05T11:27:21.734Z,11828
2019-04-05T11:28:07.114Z,12444
2019-04-05T11:29:07.109Z,11972
2019-04-05T11:30:07.141Z,10836
2019-04-05T11:31:07.156Z,10976
2019-04-05T11:32:07.180Z,11680
2019-04-05T11:33:07.199Z,12092
2019-04-05T11:34:21.886Z,11620
2019-04-05T11:35:07.248Z,10996
2019-04-05T11:36:07.274Z,11388
2019-04-05T11:37:10.052Z,13156
2019-04-05T11:38:07.339Z,13260
2019-04-05T11:39:22.007Z,13328
2019-04-05T11:40:07.358Z,13428
2019-04-05T11:41:07.383Z,13040
2019-04-05T11:42:07.396Z,13192
2019-04-05T11:43:07.431Z,12052
2019-04-05T11:44:08.445Z,11196
2019-04-05T11:45:07.468Z,10912
2019-04-05T11:46:07.489Z,11436
2019-04-05T11:47:22.182Z,12900
2019-04-05T11:48:07.535Z,12828
2019-04-05T11:49:10.555Z,12392
2019-04-05T11:50:07.354Z,12632
2019-04-05T11:51:07.615Z,12920
2019-04-05T11:52:07.634Z,12580
2019-04-05T11:53:22.312Z,11308
2019-04-05T11:54:07.679Z,10472
2019-04-05T11:55:22.359Z,11116
2019-04-05T11:56:24.776Z,11192
2019-04-05T11:57:07.515Z,10560
2019-04-05T11:58:22.197Z,10500
2019-04-05T11:59:37.120Z,9732
2019-04-05T12:00:07.809Z,9388
2019-04-05T12:01:07.831Z,9348
2019-04-05T12:02:07.859Z,10084
2019-04-05T12:03:09.644Z,9568
2019-04-05T12:04:07.919Z,9832
2019-04-05T12:05:07.928Z,9832
2019-04-05T12:06:07.951Z,9928
2019-04-05T12:07:26.214Z,10040
2019-04-05T12:08:09.274Z,10032
2019-04-05T12:09:09.168Z,9612
2019-04-05T12:10:22.700Z,9920
2019-04-05T12:11:08.061Z,9084
2019-04-05T12:12:08.092Z,9112
2019-04-05T12:13:22.767Z,9568
2019-04-05T12:14:08.171Z,8764
2019-04-05T12:15:22.812Z,9620
2019-04-05T12:16:12.909Z,9640
2019-04-05T12:17:12.147Z,9400
2019-04-05T12:18:11.376Z,9120
2019-04-05T12:19:11.748Z,9416
2019-04-05T12:20:10.602Z,8784
2019-04-05T12:21:12.337Z,9836
2019-04-05T12:22:13.991Z,9776
2019-04-05T12:23:08.334Z,9564
2019-04-05T12:24:10.286Z,9580
2019-04-05T12:25:10.665Z,9344
2019-04-05T12:26:11.107Z,9316
2019-04-05T12:27:11.480Z,9276
2019-04-05T12:29:08.491Z,9284
2019-04-05T12:30:08.494Z,9124
2019-04-05T12:31:23.182Z,9308
2019-04-05T12:32:08.536Z,9152
2019-04-05T12:33:24.267Z,9132
2019-04-05T12:34:08.593Z,9136
2019-04-05T12:35:10.784Z,9104
2019-04-05T12:36:25.047Z,9036
2019-04-05T12:37:23.318Z,9024
2019-04-05T12:38:28.396Z,8908
2019-04-05T12:39:13.040Z,8832
2019-04-05T12:40:14.773Z,8796
2019-04-05T12:42:11.916Z,8660
2019-04-05T12:43:13.021Z,8548
2019-04-05T12:44:08.823Z,8548
2019-04-05T12:45:08.843Z,8536
2019-04-05T12:46:08.863Z,8444
2019-04-05T12:47:23.543Z,8516
2019-04-05T12:48:08.906Z,8552
2019-04-05T12:49:08.934Z,8560
2019-04-05T12:51:15.413Z,8396
2019-04-05T12:53:09.018Z,8336
2019-04-05T12:54:23.705Z,8272
2019-04-05T12:55:09.083Z,8292
2019-04-05T12:56:24.323Z,8348
2019-04-05T12:57:09.104Z,8356
2019-04-05T12:58:25.844Z,8336
2019-04-05T12:59:09.272Z,8316
2019-04-05T13:00:09.182Z,8336
2019-04-05T13:01:10.933Z,8260
2019-04-05T13:02:37.785Z,8252
2019-04-05T13:03:09.260Z,8240
2019-04-05T13:05:09.297Z,8252
2019-04-05T13:06:09.313Z,8256
2019-04-05T13:07:09.344Z,8200
2019-04-05T13:08:26.037Z,8148
2019-04-05T13:09:12.813Z,8092
2019-04-05T13:10:09.675Z,8012
2019-04-05T13:11:26.583Z,7908
2019-04-05T13:12:09.453Z,7932
2019-04-05T13:13:09.243Z,7880
2019-04-05T13:14:09.509Z,7800
2019-04-05T13:15:22.127Z,7924
2019-04-05T13:16:12.486Z,7976
2019-04-05T13:17:10.126Z,8024
2019-04-05T13:18:09.594Z,8012
2019-04-05T13:19:09.671Z,7984
2019-04-05T13:20:09.635Z,7944
2019-04-05T13:21:27.154Z,7820
2019-04-05T13:22:26.063Z,7780
2019-04-05T13:23:13.342Z,7812
2019-04-05T13:25:13.278Z,7740
2019-04-05T13:26:13.939Z,7720
2019-04-05T13:27:11.681Z,7732
2019-04-05T13:28:23.594Z,7708
2019-04-05T13:29:24.508Z,7764
2019-04-05T13:30:09.867Z,7772
2019-04-05T13:31:09.914Z,7700
2019-04-05T13:32:09.919Z,7560
2019-04-05T13:33:09.933Z,7468
2019-04-05T13:34:28.060Z,7392
2019-04-05T13:35:09.977Z,7336
2019-04-05T13:36:13.161Z,7252
2019-04-05T13:37:22.030Z,7236
2019-04-05T13:38:10.045Z,7184
2019-04-05T13:39:10.071Z,7184
2019-04-05T13:40:11.326Z,7148
2019-04-05T13:41:10.119Z,7116
2019-04-05T13:42:24.812Z,7056
2019-04-05T13:43:24.842Z,7024
2019-04-05T13:44:10.859Z,7008
2019-04-05T13:45:24.873Z,7040
2019-04-05T13:46:28.497Z,7028
2019-04-05T13:47:24.922Z,7016
2019-04-05T13:48:13.865Z,7016
2019-04-05T13:49:12.852Z,6964
2019-04-05T13:50:24.987Z,6956
2019-04-05T13:51:26.842Z,6924
2019-04-05T13:52:13.756Z,6920
2019-04-05T13:54:13.218Z,6884
2019-04-05T13:55:13.064Z,6896
2019-04-05T13:56:12.893Z,6876
2019-04-05T13:57:12.828Z,6884
2019-04-05T13:58:13.434Z,6836
2019-04-05T13:59:10.793Z,6780
2019-04-05T14:00:10.553Z,6708
2019-04-05T14:01:10.600Z,6744
2019-04-05T14:02:13.630Z,6736
2019-04-05T14:04:10.650Z,6716
2019-04-05T14:05:10.662Z,6708
2019-04-05T14:06:25.358Z,6688
2019-04-05T14:07:11.100Z,6664
2019-04-05T14:09:15.470Z,6624
2019-04-05T14:10:25.467Z,6616
2019-04-05T14:11:25.982Z,6576
2019-04-05T14:12:14.119Z,6556
2019-04-05T14:13:14.547Z,6560
2019-04-05T14:14:14.313Z,6568
2019-04-05T14:15:13.480Z,6536
2019-04-05T14:16:15.268Z,6528
2019-04-05T14:17:11.400Z,6464
2019-04-05T14:20:13.798Z,6352
2019-04-05T14:21:11.034Z,6372
2019-04-05T14:22:27.328Z,6412
2019-04-05T14:23:11.085Z,6404
2019-04-05T14:24:11.577Z,6408
2019-04-05T14:25:11.119Z,6360
2019-04-05T14:26:11.149Z,6364
2019-04-05T14:27:11.289Z,6380
2019-04-05T14:28:12.306Z,6368
2019-04-05T14:29:11.458Z,6372
2019-04-05T14:30:13.495Z,6352
2019-04-05T14:31:11.256Z,6332
2019-04-05T14:32:27.704Z,6288
2019-04-05T14:33:11.306Z,6272
2019-04-05T14:34:26.903Z,6260
2019-04-05T14:35:12.729Z,6236
2019-04-05T14:37:29.437Z,6088
2019-04-05T14:38:13.930Z,6040
2019-04-05T14:39:11.446Z,5944
2019-04-05T14:40:13.910Z,5812
2019-04-05T14:41:11.485Z,5752